Time;durP1;ratioP1;P1;durP2;ratioP2;P2;SDS_P1;SDS_P2;PMS_P1;PMS_P2;Temp;Humidity;BMP_temperature;BMP_pressure;BME280_temperature;BME280_humidity;BME280_pressure;Samples;Min_cycle;Max_cycle;Signal;HPM_P1;HPM_P2
2021/04/11 00:05:40;;;;;;;17.05;9.48;;;;;;;8.66;60.31;97414.13;10095358;29;20479;-79
2021/04/11 00:11:02;;;;;;;14.38;8.40;;;;;;;8.60;60.31;97411.66;10075647;29;20108;-79
2021/04/11 00:16:22;;;;;;;14.25;9.00;;;;;;;8.56;60.46;97402.28;10101108;29;20048;-79
2021/04/11 00:21:42;;;;;;;16.13;8.90;;;;;;;8.49;60.21;97395.59;10075504;29;20477;-79
2021/04/11 00:27:01;;;;;;;14.98;8.27;;;;;;;8.44;60.84;97388.28;10100787;29;20049;-79
2021/04/11 00:32:21;;;;;;;13.63;9.15;;;;;;;8.44;60.63;97381.97;10100386;29;20049;-79
2021/04/11 00:37:41;;;;;;;16.23;9.10;;;;;;;8.39;61.13;97383.00;10087401;29;20045;-79
2021/04/11 00:43:07;;;;;;;16.48;9.75;;;;;;;8.28;60.86;97385.06;10100097;29;20056;-79
2021/04/11 00:48:27;;;;;;;12.57;8.57;;;;;;;8.21;61.14;97377.63;10074588;29;20056;-79
2021/04/11 00:53:47;;;;;;;15.65;8.45;;;;;;;8.12;61.08;97378.38;10099974;29;20040;-79
2021/04/11 00:59:08;;;;;;;13.52;8.88;;;;;;;8.09;61.34;97379.53;10086554;29;20045;-79
2021/04/11 01:04:28;;;;;;;19.40;9.02;;;;;;;8.05;61.22;97379.25;10073859;29;20057;-79
2021/04/11 01:09:49;;;;;;;15.85;9.00;;;;;;;7.97;61.13;97373.09;10099114;29;20056;-79
2021/04/11 01:15:27;;;;;;;14.60;9.38;;;;;;;7.89;61.29;97370.47;10073118;29;20101;-79
2021/04/11 01:20:47;;;;;;;16.15;9.50;;;;;;;7.74;61.14;97374.28;10086259;29;20052;-78
2021/04/11 01:26:07;;;;;;;15.40;8.73;;;;;;;7.68;61.58;97371.06;10098714;29;20049;-79
2021/04/11 01:31:32;;;;;;;14.40;8.82;;;;;;;7.62;61.75;97367.84;10072963;29;20449;-79
2021/04/11 01:36:53;;;;;;;14.48;8.80;;;;;;;7.54;61.74;97361.72;10097169;29;20048;-79
2021/04/11 01:42:15;;;;;;;16.23;9.27;;;;;;;7.52;61.78;97353.22;10097475;29;20049;-79
2021/04/11 01:47:36;;;;;;;14.02;8.85;;;;;;;7.51;62.01;97340.66;10072132;29;20052;-79
2021/04/11 01:52:57;;;;;;;14.70;9.02;;;;;;;7.46;62.13;97338.91;10071735;29;20057;-79
2021/04/11 01:58:17;;;;;;;16.90;9.32;;;;;;;7.39;61.77;97343.28;10098087;29;20041;-79
2021/04/11 02:03:42;;;;;;;15.43;9.30;;;;;;;7.33;62.06;97342.09;10085261;29;20084;-79
2021/04/11 02:09:11;;;;;;;13.82;9.35;;;;;;;7.29;62.17;97334.22;10084964;29;20060;-79
2021/04/11 02:14:41;;;;;;;16.77;9.55;;;;;;;7.24;62.34;97334.47;10084481;29;20608;-79
2021/04/11 02:20:00;;;;;;;15.02;8.98;;;;;;;7.17;62.35;97328.50;10071263;29;20045;-79
2021/04/11 02:25:33;;;;;;;16.35;10.80;;;;;;;7.06;62.28;97329.06;10084413;29;20374;-79
2021/04/11 02:31:17;;;;;;;12.23;8.85;;;;;;;6.99;62.73;97313.28;10083433;29;20052;-79
2021/04/11 02:36:45;;;;;;;14.23;9.85;;;;;;;6.89;62.75;97310.47;10095873;29;20052;-79
2021/04/11 02:42:16;;;;;;;;;;;;;;;6.83;63.37;97314.84;10096990;29;20481;-79
2021/04/11 02:47:36;;;;;;;13.88;9.25;;;;;;;6.80;63.11;97307.69;10083815;29;19924;-79
2021/04/11 02:53:24;;;;;;;16.83;10.25;;;;;;;6.75;63.54;97303.84;10078658;29;20060;-79
2021/04/11 02:58:47;;;;;;;16.42;11.65;;;;;;;6.74;63.59;97296.13;10091874;29;20045;-79
2021/04/11 03:04:07;;;;;;;16.85;11.43;;;;;;;6.76;63.67;97296.28;10078056;29;20061;-79
2021/04/11 03:09:35;;;;;;;17.38;11.70;;;;;;;6.75;63.53;97292.03;10091307;29;20100;-79
2021/04/11 03:14:57;;;;;;;18.67;11.48;;;;;;;6.71;63.55;97295.25;10078123;29;20380;-79
2021/04/11 03:20:28;;;;;;;17.83;11.18;;;;;;;6.77;63.72;97297.75;10078520;29;20491;-79
2021/04/11 03:26:06;;;;;;;17.77;11.60;;;;;;;6.81;64.04;97298.78;10089844;29;20535;-79
2021/04/11 03:31:34;;;;;;;25.05;13.60;;;;;;;6.84;63.99;97302.41;10090153;29;20045;-79
2021/04/11 03:36:54;;;;;;;17.48;11.15;;;;;;;6.77;64.23;97304.03;10077100;29;20048;-79
2021/04/11 03:42:17;;;;;;;17.30;11.90;;;;;;;6.72;63.80;97307.06;10102871;29;20508;-79
2021/04/11 03:48:03;;;;;;;20.30;11.85;;;;;;;6.72;64.09;97302.25;10101943;29;20051;-79
2021/04/11 03:53:46;;;;;;;21.70;12.23;;;;;;;6.74;64.20;97307.22;10103084;29;20052;-78
2021/04/11 03:59:06;;;;;;;17.98;12.25;;;;;;;6.74;64.56;97310.00;10089167;29;20056;-79
2021/04/11 04:04:37;;;;;;;19.42;11.98;;;;;;;6.72;64.09;97307.06;10102101;29;20061;-79
2021/04/11 04:10:03;;;;;;;20.17;11.95;;;;;;;6.68;64.46;97310.28;10077695;29;20049;-79
2021/04/11 04:15:56;;;;;;;20.60;11.30;;;;;;;6.65;64.44;97302.38;10089234;29;20503;-79
2021/04/11 04:22:03;;;;;;;19.05;11.20;;;;;;;6.68;64.23;97296.41;10100083;29;20045;-80
2021/04/11 04:27:41;;;;;;;19.70;10.90;;;;;;;6.68;64.14;97296.41;10100793;29;20045;-79
2021/04/11 04:33:21;;;;;;;17.77;10.88;;;;;;;6.73;64.21;97289.84;10075301;29;20046;-79
2021/04/11 04:38:56;;;;;;;17.77;10.60;;;;;;;6.84;63.94;97296.88;10101729;29;20049;-80
2021/04/11 04:44:37;;;;;;;17.50;10.48;;;;;;;6.97;64.16;97304.06;10100569;29;20052;-80
2021/04/11 04:50:26;;;;;;;16.95;10.52;;;;;;;7.17;64.14;97309.06;10085755;29;20128;-80
2021/04/11 04:55:55;;;;;;;19.15;11.15;;;;;;;7.45;63.57;97298.56;10088188;29;20037;-79
2021/04/11 05:01:22;;;;;;;14.48;10.60;;;;;;;7.79;63.06;97294.00;10074718;29;20413;-80
2021/04/11 05:07:11;;;;;;;16.45;10.27;;;;;;;8.26;63.09;97298.00;10100890;29;20437;-79
2021/04/11 05:12:48;;;;;;;16.50;10.10;;;;;;;8.78;62.91;97300.88;10099503;29;20449;-79
2021/04/11 05:18:38;;;;;;;16.55;9.65;;;;;;;9.43;61.90;97312.75;10086674;29;20461;-80
2021/04/11 05:24:21;;;;;;;15.77;9.40;;;;;;;10.44;60.45;97307.28;10098083;29;20052;-80
2021/04/11 05:29:58;;;;;;;16.17;9.43;;;;;;;12.12;59.60;97307.16;10074425;29;20052;-78
2021/04/11 05:35:18;;;;;;;15.35;9.20;;;;;;;15.66;60.17;97321.22;10099787;29;20044;-79
2021/04/11 05:41:07;;;;;;;13.55;8.98;;;;;;;19.89;54.23;97306.09;10098764;29;20060;-79
2021/04/11 05:46:50;;;;;;;13.23;9.30;;;;;;;24.41;46.52;97309.47;10071518;29;20485;-77
2021/04/11 05:52:14;;;;;;;10.50;7.57;;;;;;;27.46;36.84;97315.31;10086832;29;20434;-79
2021/04/11 05:58:32;;;;;;;11.00;7.63;;;;;;;31.58;29.49;97321.84;10073010;29;20048;-78
2021/04/11 06:04:01;;;;;;;10.48;6.43;;;;;;;35.64;19.68;97316.00;10079285;29;20053;-79
2021/04/11 06:09:51;;;;;;;8.95;6.15;;;;;;;36.93;14.95;97317.88;10095981;29;20104;-79
2021/04/11 06:15:14;;;;;;;12.98;6.03;;;;;;;37.47;12.73;97320.53;10083251;29;20397;-76
2021/04/11 06:20:36;;;;;;;8.10;4.82;;;;;;;38.26;11.49;97318.91;10095718;29;20045;-77
2021/04/11 06:26:20;;;;;;;6.95;4.95;;;;;;;38.54;10.79;97316.78;10082927;29;20049;-78
2021/04/11 06:32:04;;;;;;;7.03;5.00;;;;;;;39.66;10.14;97328.34;10071427;29;20492;-78
2021/04/11 06:37:24;;;;;;;8.07;4.93;;;;;;;41.76;8.45;97333.41;10095131;29;20041;-76
2021/04/11 06:43:04;;;;;;;5.78;4.15;;;;;;;41.97;7.79;97330.53;10069766;29;20520;-78
2021/04/11 06:49:00;;;;;;;6.95;4.15;;;;;;;42.38;7.37;97333.03;10093539;29;20045;-78
2021/04/11 06:54:44;;;;;;;5.55;3.47;;;;;;;43.55;6.37;97317.59;10095333;29;20461;-76
2021/04/11 07:00:39;;;;;;;8.20;3.75;;;;;;;43.45;5.65;97327.16;10082043;29;20378;-75
2021/04/11 07:06:27;;;;;;;4.05;3.05;;;;;;;44.22;5.50;97309.75;10094682;29;20061;-79
2021/04/11 07:12:42;;;;;;;6.68;3.10;;;;;;;43.74;5.53;97317.00;10081910;29;20101;-78
2021/04/11 07:18:10;;;;;;;5.50;2.97;;;;;;;43.61;5.53;97314.22;10084443;29;20049;-76
2021/04/11 07:23:45;;;;;;;5.15;3.10;;;;;;;45.60;4.70;97315.97;10095098;29;20045;-78
2021/04/11 07:29:26;;;;;;;5.03;2.97;;;;;;;45.75;4.29;97315.50;10095603;29;20053;-77
2021/04/11 07:35:07;;;;;;;3.92;2.35;;;;;;;46.07;3.98;97323.97;10096611;29;20049;-78
2021/04/11 07:40:55;;;;;;;4.90;2.88;;;;;;;45.77;4.28;97333.06;10101176;29;20045;-76
2021/04/11 07:46:28;;;;;;;6.05;2.85;;;;;;;44.50;4.65;97328.19;10098516;29;20464;-77
2021/04/11 07:52:19;;;;;;;4.13;2.70;;;;;;;44.82;4.42;97321.38;10113599;29;20469;-77
2021/04/11 07:58:06;;;;;;;7.50;2.80;;;;;;;43.31;4.89;97320.03;10113489;29;20053;-78
2021/04/11 08:03:45;;;;;;;5.20;3.00;;;;;;;43.56;5.14;97307.25;10128054;29;20072;-77
2021/04/11 08:09:19;;;;;;;4.20;2.60;;;;;;;44.29;4.81;97307.03;10137352;29;20049;-78
2021/04/11 08:14:48;;;;;;;5.03;2.92;;;;;;;44.25;4.75;97305.09;10138811;29;20067;-78
2021/04/11 08:20:26;;;;;;;;;;;;;;;44.00;4.36;97309.16;10139564;29;20045;-78
2021/04/11 08:26:29;;;;;;;3.33;2.15;;;;;;;43.53;4.65;97315.53;10139054;29;20430;-78
2021/04/11 08:32:24;;;;;;;5.43;2.53;;;;;;;43.34;4.97;97313.19;10138406;29;20045;-80
2021/04/11 08:38:04;;;;;;;5.78;2.85;;;;;;;42.87;4.93;97304.00;10107258;29;20167;-79
2021/04/11 08:44:01;;;;;;;3.85;2.50;;;;;;;45.23;4.20;97310.03;10088668;29;20049;-79
2021/04/11 08:49:55;;;;;;;3.15;1.85;;;;;;;46.29;3.96;97303.69;10131516;29;20048;-78
2021/04/11 08:55:34;;;;;;;5.00;2.60;;;;;;;48.34;2.89;97305.63;10099986;29;20052;-78
2021/04/11 09:01:33;;;;;;;4.82;2.20;;;;;;;49.25;2.57;97296.97;10098437;29;20053;-78
2021/04/11 09:07:56;;;;;;;6.50;2.35;;;;;;;49.38;2.56;97290.56;10038555;29;20067;-78
2021/04/11 09:13:46;;;;;;;5.85;2.35;;;;;;;46.03;3.29;97297.72;10059768;29;20049;-79
2021/04/11 09:19:28;;;;;;;5.43;2.30;;;;;;;43.38;4.45;97294.59;10059267;29;20049;-78
2021/04/11 09:25:15;;;;;;;7.88;3.33;;;;;;;40.08;5.53;97285.88;10059319;29;20041;-73
2021/04/11 09:30:42;;;;;;;4.45;2.38;;;;;;;38.20;7.31;97284.22;10059209;29;20051;-75
2021/04/11 09:36:36;;;;;;;5.40;2.38;;;;;;;38.71;6.99;97280.97;10058808;29;20049;-74
2021/04/11 09:42:50;;;;;;;4.32;2.15;;;;;;;33.92;8.32;97277.19;10042928;29;20061;-77
2021/04/11 09:48:39;;;;;;;4.25;2.22;;;;;;;32.31;10.32;97279.69;10009194;29;20056;-77
2021/04/11 09:54:37;;;;;;;7.80;2.38;;;;;;;33.82;10.12;97270.22;10057335;29;20412;-75
2021/04/11 10:00:24;;;;;;;5.97;2.30;;;;;;;36.83;9.17;97257.97;10057980;29;20068;-74
2021/04/11 10:05:58;;;;;;;8.40;2.60;;;;;;;36.54;8.81;97252.72;10087509;29;20485;-76
2021/04/11 10:11:47;;;;;;;4.57;2.42;;;;;;;37.37;7.97;97259.19;10095678;29;20149;-78
2021/04/11 10:17:46;;;;;;;6.30;2.20;;;;;;;38.00;7.68;97256.81;10093010;29;20378;-80
2021/04/11 10:23:43;;;;;;;5.28;3.05;;;;;;;39.23;6.96;97257.00;10092035;29;20064;-79
2021/04/11 10:29:09;;;;;;;4.85;2.38;;;;;;;33.59;9.20;97263.75;10096797;29;20048;-80
2021/04/11 10:34:33;;;;;;;3.92;2.20;;;;;;;33.69;10.13;97265.63;10095137;29;20064;-77
2021/04/11 10:40:00;;;;;;;6.13;2.97;;;;;;;32.75;10.85;97260.44;10080379;29;20045;-79
2021/04/11 10:45:35;;;;;;;7.35;2.60;;;;;;;28.37;13.13;97267.28;10092219;29;20045;-80
2021/04/11 10:51:16;;;;;;;5.05;2.95;;;;;;;26.39;16.07;97251.31;10089955;29;20045;-79
2021/04/11 10:57:27;;;;;;;5.38;2.75;;;;;;;25.75;16.85;97238.53;10092846;29;20049;-79
2021/04/11 11:03:44;;;;;;;6.43;2.58;;;;;;;25.16;17.81;97238.44;10094511;29;20109;-77
2021/04/11 11:09:31;;;;;;;5.55;2.60;;;;;;;25.46;17.58;97234.22;10097079;29;20485;-76
2021/04/11 11:15:30;;;;;;;4.60;2.80;;;;;;;26.74;17.05;97231.19;10099532;29;20440;-78
2021/04/11 11:21:27;;;;;;;5.63;2.25;;;;;;;26.51;17.30;97228.38;10074716;29;20065;-79
2021/04/11 11:27:01;;;;;;;6.43;2.55;;;;;;;26.10;17.48;97222.06;10102050;29;20073;-75
2021/04/11 11:32:36;;;;;;;6.50;2.78;;;;;;;25.75;17.76;97223.53;10101541;29;20048;-76
2021/04/11 11:38:09;;;;;;;5.82;2.80;;;;;;;24.53;18.63;97218.25;10100800;29;20056;-76
2021/04/11 11:44:01;;;;;;;6.03;2.85;;;;;;;24.03;19.86;97218.66;10085333;29;20049;-76
2021/04/11 11:50:04;;;;;;;8.35;3.00;;;;;;;24.08;20.09;97211.59;10101049;29;20053;-76
2021/04/11 11:55:35;;;;;;;4.70;2.37;;;;;;;23.87;20.62;97233.53;10102055;29;20045;-80
2021/04/11 12:01:01;;;;;;;4.70;2.50;;;;;;;23.27;20.71;97225.91;10113830;29;20420;-76
2021/04/11 12:06:32;;;;;;;5.20;2.60;;;;;;;23.17;21.10;97208.72;10100237;29;20088;-76
2021/04/11 12:12:13;;;;;;;5.28;2.75;;;;;;;22.55;21.60;97210.88;10100315;29;20052;-76
2021/04/11 12:17:32;;;;;;;6.35;2.58;;;;;;;22.25;21.41;97221.88;10112890;29;20112;-76
2021/04/11 12:23:04;;;;;;;5.93;2.70;;;;;;;22.19;21.75;97216.81;10112623;29;20118;-76
2021/04/11 12:28:25;;;;;;;4.72;2.70;;;;;;;22.26;21.66;97214.78;10112747;29;20056;-77
2021/04/11 12:33:57;;;;;;;5.90;2.80;;;;;;;22.08;22.28;97200.31;10099968;29;20045;-75
2021/04/11 12:39:29;;;;;;;5.90;2.70;;;;;;;21.60;22.67;97201.00;10104108;29;20109;-75
2021/04/11 12:45:08;;;;;;;7.75;3.22;;;;;;;21.14;23.10;97191.03;10075690;29;20045;-76
2021/04/11 12:50:41;;;;;;;5.30;2.70;;;;;;;21.13;23.40;97188.84;10098030;29;20045;-75
2021/04/11 12:56:05;;;;;;;10.73;3.10;;;;;;;21.14;23.86;97193.16;10085589;29;20045;-78
2021/04/11 13:01:37;;;;;;;5.05;2.67;;;;;;;21.08;24.27;97193.03;10085625;29;20053;-75
2021/04/11 13:07:20;;;;;;;6.07;2.88;;;;;;;20.62;24.79;97190.06;10098176;29;20408;-75
2021/04/11 13:13:00;;;;;;;7.67;3.50;;;;;;;20.37;25.96;97194.50;10097968;29;20128;-75
2021/04/11 13:18:24;;;;;;;5.60;3.15;;;;;;;20.04;25.99;97182.47;10098200;29;20056;-74
2021/04/11 13:23:48;;;;;;;6.13;3.97;;;;;;;20.01;26.13;97181.00;10098050;29;20048;-74
2021/04/11 13:29:14;;;;;;;7.13;3.10;;;;;;;20.41;25.87;97175.47;10095644;29;20401;-75
2021/04/11 13:35:19;;;;;;;6.35;2.83;;;;;;;20.71;25.67;97166.13;10093366;29;20041;-76
2021/04/11 13:40:38;;;;;;;7.55;3.22;;;;;;;20.82;26.12;97165.63;10094337;29;20057;-75
2021/04/11 13:46:17;;;;;;;6.03;2.35;;;;;;;21.10;25.88;97162.56;10081358;29;20164;-76
2021/04/11 13:51:54;;;;;;;7.15;3.00;;;;;;;21.42;25.52;97156.75;10081759;29;20041;-75
2021/04/11 13:57:39;;;;;;;9.65;3.20;;;;;;;21.47;25.28;97151.13;10096971;29;20044;-74
2021/04/11 14:03:27;;;;;;;7.28;2.97;;;;;;;21.41;25.42;97149.63;10096001;29;20059;-74
2021/04/11 14:08:58;;;;;;;7.20;2.60;;;;;;;21.23;25.61;97155.00;10083242;29;20461;-74
2021/04/11 14:14:58;;;;;;;5.45;2.78;;;;;;;21.22;25.39;97161.34;10095179;29;20049;-74
2021/04/11 14:20:48;;;;;;;6.05;3.03;;;;;;;20.71;25.08;97149.13;10083396;29;20049;-78
2021/04/11 14:26:39;;;;;;;5.53;2.42;;;;;;;20.69;25.27;97146.25;10096115;29;20176;-76
2021/04/11 14:32:10;;;;;;;7.13;2.60;;;;;;;20.67;25.36;97144.09;10082819;29;20089;-77
2021/04/11 14:37:41;;;;;;;6.93;2.97;;;;;;;20.56;25.24;97142.47;10082396;29;20400;-76
2021/04/11 14:43:25;;;;;;;4.90;2.90;;;;;;;20.15;25.94;97140.91;10083604;29;20536;-77
2021/04/11 14:48:45;;;;;;;5.60;2.88;;;;;;;19.87;25.88;97132.53;10090090;29;20051;-75
2021/04/11 14:54:49;;;;;;;5.53;2.55;;;;;;;19.82;26.24;97134.59;10090498;29;20041;-75
2021/04/11 15:00:18;;;;;;;6.88;3.00;;;;;;;20.18;25.96;97133.91;10087432;29;20064;-76
2021/04/11 15:06:10;;;;;;;7.70;2.90;;;;;;;20.14;26.31;97117.53;10103738;29;20064;-76
2021/04/11 15:12:11;;;;;;;6.13;2.67;;;;;;;20.00;26.31;97117.25;10102476;29;20116;-76
2021/04/11 15:18:00;;;;;;;5.25;2.72;;;;;;;19.96;26.57;97115.03;10099142;29;20053;-79
2021/04/11 15:23:46;;;;;;;5.50;2.65;;;;;;;19.93;26.61;97124.91;10087027;29;20065;-75
2021/04/11 15:29:23;;;;;;;5.47;2.50;;;;;;;19.88;26.61;97123.41;10085895;29;20117;-75
2021/04/11 15:35:05;;;;;;;6.55;2.25;;;;;;;19.76;26.86;97117.44;10100838;29;20060;-79
2021/04/11 15:40:39;;;;;;;5.47;3.28;;;;;;;19.57;26.86;97118.44;10087934;29;20109;-77
2021/04/11 15:46:30;;;;;;;7.72;3.15;;;;;;;19.41;27.35;97132.94;10100187;29;20120;-75
2021/04/11 15:52:16;;;;;;;4.10;2.70;;;;;;;19.23;27.77;97127.56;10114332;29;20093;-79
2021/04/11 15:58:05;;;;;;;6.18;2.20;;;;;;;19.19;27.19;97123.91;10113302;29;20045;-77
2021/04/11 16:03:31;;;;;;;6.03;2.30;;;;;;;19.14;27.07;97128.75;10055222;29;20133;-76
2021/04/11 16:09:02;;;;;;;7.60;2.70;;;;;;;19.19;27.22;97121.78;10072250;29;20046;-76
2021/04/11 16:14:44;;;;;;;5.60;2.42;;;;;;;19.09;27.46;97122.28;10029139;29;20501;-75
2021/04/11 16:20:11;;;;;;;5.18;2.38;;;;;;;18.94;27.44;97128.97;10016643;29;20117;-78
2021/04/11 16:25:38;;;;;;;6.00;2.28;;;;;;;18.86;28.01;97131.59;10015121;29;20061;-79
2021/04/11 16:31:22;;;;;;;4.57;2.05;;;;;;;18.76;28.50;97128.50;10012904;29;20053;-76
2021/04/11 16:36:57;;;;;;;;;;;;;;;18.51;29.06;97133.50;10049401;29;20050;-76
2021/04/11 16:43:20;;;;;;;4.40;2.40;;;;;;;18.41;29.13;97135.31;10061395;29;20265;-77
2021/04/11 16:48:59;;;;;;;6.50;2.65;;;;;;;18.27;29.06;97133.56;10022879;29;20193;-80
2021/04/11 16:54:30;;;;;;;5.40;2.75;;;;;;;18.19;29.68;97130.50;10061473;29;20049;-82
2021/04/11 17:00:04;;;;;;;4.88;2.40;;;;;;;18.10;30.03;97130.94;10048099;29;20049;-76
2021/04/11 17:05:26;;;;;;;5.47;2.40;;;;;;;17.99;29.97;97129.94;10061012;29;20054;-76
2021/04/11 17:11:04;;;;;;;6.35;2.58;;;;;;;17.82;29.82;97131.56;10034022;29;20049;-75
2021/04/11 17:17:00;;;;;;;8.98;3.25;;;;;;;17.68;29.97;97140.31;10059910;29;20105;-74
2021/04/11 17:22:47;;;;;;;7.22;3.50;;;;;;;17.56;30.46;97144.84;10059696;29;20458;-75
2021/04/11 17:28:24;;;;;;;6.13;3.90;;;;;;;17.39;30.39;97141.53;10046650;29;20049;-74
2021/04/11 17:34:26;;;;;;;8.10;4.30;;;;;;;17.22;31.11;97138.84;10749508;27;20338;-78
2021/04/11 17:39:46;;;;;;;7.82;3.72;;;;;;;17.00;31.71;97136.78;10665638;27;20054;-77
2021/04/11 17:45:30;;;;;;;8.18;3.45;;;;;;;16.84;31.59;97142.59;10647328;27;20488;-74
2021/04/11 17:51:16;;;;;;;8.90;3.90;;;;;;;16.70;32.40;97144.94;10704856;27;20034;-75
2021/04/11 17:57:00;;;;;;;5.60;2.97;;;;;;;16.65;32.40;97154.59;10683826;27;20039;-90
2021/04/11 18:02:28;;;;;;;9.43;3.80;;;;;;;16.66;32.69;97153.22;10784512;22;20055;-78
2021/04/11 18:08:06;;;;;;;7.88;3.15;;;;;;;16.67;32.67;97157.47;10546678;28;20047;-77
2021/04/11 18:13:39;;;;;;;7.20;3.30;;;;;;;16.70;32.75;97164.66;10546468;28;20055;-78
2021/04/11 18:19:25;;;;;;;6.22;3.60;;;;;;;16.72;32.69;97172.47;10532982;28;20063;-79
2021/04/11 18:25:31;;;;;;;6.82;3.55;;;;;;;16.71;32.57;97171.75;10558774;28;20051;-79
2021/04/11 18:31:11;;;;;;;8.35;5.10;;;;;;;16.68;32.72;97177.91;10538572;28;20052;-79
2021/04/11 18:36:41;;;;;;;11.65;6.55;;;;;;;16.53;32.98;97171.78;10547964;28;20069;-79
2021/04/11 18:42:19;;;;;;;10.45;4.40;;;;;;;16.34;33.15;97180.25;10563118;28;20048;-78
2021/04/11 18:48:13;;;;;;;6.85;4.55;;;;;;;16.11;34.21;97182.22;10530640;28;20047;-78
2021/04/11 18:53:59;;;;;;;8.43;4.18;;;;;;;15.96;34.78;97183.81;10545181;28;20048;-78
2021/04/11 18:59:52;;;;;;;8.48;4.60;;;;;;;15.76;34.99;97191.50;10519379;28;20040;-77
2021/04/11 19:05:22;;;;;;;9.13;4.72;;;;;;;15.62;34.92;97193.75;10544131;28;20088;-75
2021/04/11 19:11:13;;;;;;;9.07;4.57;;;;;;;15.48;35.77;97184.72;10518034;28;20047;-76
2021/04/11 19:16:51;;;;;;;7.70;4.63;;;;;;;15.36;36.23;97201.84;10489677;28;20449;-76
2021/04/11 19:22:14;;;;;;;11.43;4.88;;;;;;;15.19;36.97;97200.47;10475330;28;20048;-76
2021/04/11 19:28:16;;;;;;;8.93;4.90;;;;;;;15.09;37.58;97200.78;10487547;28;20494;-75
2021/04/11 19:34:31;;;;;;;9.50;4.28;;;;;;;14.95;37.99;97205.06;10501605;28;20107;-76
2021/04/11 19:40:09;;;;;;;8.33;4.27;;;;;;;14.80;39.29;97224.16;10468850;28;20057;-75
2021/04/11 19:45:49;;;;;;;8.60;4.63;;;;;;;14.68;39.84;97217.28;10500963;28;20052;-75
2021/04/11 19:51:50;;;;;;;8.48;3.65;;;;;;;14.50;40.34;97215.13;10488970;28;20053;-75
2021/04/11 19:57:32;;;;;;;6.95;3.10;;;;;;;14.35;40.58;97215.84;10485253;28;20036;-75
2021/04/11 20:03:22;;;;;;;5.32;2.88;;;;;;;14.21;40.91;97218.75;10485708;28;20052;-75
2021/04/11 20:09:31;;;;;;;8.00;3.15;;;;;;;14.09;41.38;97220.25;10499702;28;20398;-75
2021/04/11 20:15:25;;;;;;;6.10;2.45;;;;;;;13.97;42.94;97217.63;10502450;28;20067;-75
2021/04/11 20:20:46;;;;;;;5.82;2.60;;;;;;;13.85;43.30;97226.22;10498678;28;20437;-75
2021/04/11 20:26:44;;;;;;;6.22;2.55;;;;;;;13.75;43.09;97234.88;10468074;28;20098;-76
2021/04/11 20:32:38;;;;;;;4.03;2.40;;;;;;;13.66;43.56;97229.53;10496510;28;20464;-75
2021/04/11 20:38:58;;;;;;;6.60;2.40;;;;;;;13.56;44.00;97237.44;10469889;28;20044;-75
2021/04/11 20:44:32;;;;;;;3.97;2.08;;;;;;;13.46;44.12;97238.41;10436782;28;20052;-76
2021/04/11 20:50:11;;;;;;;7.27;1.97;;;;;;;13.36;45.29;97235.13;10478894;28;20411;-74
2021/04/11 20:56:01;;;;;;;3.83;1.55;;;;;;;13.26;46.35;97222.69;10498064;28;20086;-75
2021/04/11 21:01:45;;;;;;;4.65;1.80;;;;;;;13.13;46.05;97233.28;10497700;28;20055;-74
2021/04/11 21:07:28;;;;;;;5.22;1.60;;;;;;;13.07;45.87;97230.19;10455494;28;20040;-75
2021/04/11 21:13:20;;;;;;;4.40;1.70;;;;;;;13.10;46.11;97226.13;10485818;28;20045;-75
2021/04/11 21:19:20;;;;;;;3.90;1.60;;;;;;;13.21;46.16;97230.16;10485375;28;20433;-75
2021/04/11 21:25:09;;;;;;;4.85;1.83;;;;;;;13.26;46.64;97228.31;10485079;28;20089;-75
2021/04/11 21:31:06;;;;;;;5.43;1.50;;;;;;;13.29;46.20;97232.66;10483059;28;20047;-75
2021/04/11 21:36:40;;;;;;;4.07;1.20;;;;;;;13.35;46.28;97244.88;10497044;28;20074;-75
2021/04/11 21:42:40;;;;;;;3.47;1.42;;;;;;;13.36;46.16;97245.63;10483754;28;20055;-75
2021/04/11 21:48:56;;;;;;;4.90;1.10;;;;;;;13.34;46.57;97235.03;10482999;28;20044;-75
2021/04/11 21:54:39;;;;;;;3.85;1.08;;;;;;;13.36;46.55;97254.03;10486567;28;20115;-75
2021/04/11 22:00:51;;;;;;;5.47;1.23;;;;;;;13.35;46.52;97244.16;10482705;28;20411;-75
2021/04/11 22:06:35;;;;;;;2.63;1.00;;;;;;;13.30;46.74;97251.63;10496276;28;20057;-75
2021/04/11 22:12:17;;;;;;;4.35;1.27;;;;;;;13.31;46.68;97257.97;10482689;28;20045;-75
2021/04/11 22:17:51;;;;;;;2.63;1.00;;;;;;;13.27;46.81;97258.50;10487482;28;20048;-74
2021/04/11 22:23:10;;;;;;;2.00;0.80;;;;;;;13.23;46.89;97263.94;10503942;28;20048;-75
2021/04/11 22:28:47;;;;;;;3.50;1.05;;;;;;;13.18;47.17;97259.44;10503439;28;20106;-75
2021/04/11 22:34:26;;;;;;;3.47;1.10;;;;;;;13.21;46.92;97261.00;10475250;28;20044;-75
2021/04/11 22:39:50;;;;;;;3.20;1.10;;;;;;;13.22;46.95;97262.47;10488929;28;20041;-75
2021/04/11 22:45:48;;;;;;;2.83;1.15;;;;;;;13.23;47.37;97261.13;10474716;28;20044;-76
2021/04/11 22:51:45;;;;;;;3.92;1.10;;;;;;;13.26;47.18;97268.28;10465687;28;20064;-75
2021/04/11 22:57:15;;;;;;;3.55;1.10;;;;;;;13.25;46.83;97280.84;10480677;28;20061;-75
2021/04/11 23:02:39;;;;;;;4.55;1.10;;;;;;;13.15;47.34;97274.69;10474691;28;20059;-74
2021/04/11 23:08:03;;;;;;;4.53;1.20;;;;;;;13.11;47.39;97280.09;10488629;28;20106;-75
2021/04/11 23:13:26;;;;;;;3.17;1.42;;;;;;;13.04;47.44;97269.94;10475202;28;20044;-75
2021/04/11 23:19:30;;;;;;;3.30;1.30;;;;;;;12.94;47.67;97264.56;10473582;28;20036;-75
2021/04/11 23:25:27;;;;;;;2.50;1.02;;;;;;;12.95;47.78;97268.81;10478564;28;20044;-75
2021/04/11 23:31:28;;;;;;;2.85;1.15;;;;;;;12.94;48.17;97272.97;10501288;28;20044;-75
2021/04/11 23:37:13;;;;;;;2.95;1.30;;;;;;;12.95;47.83;97280.00;10487070;28;20041;-75
2021/04/11 23:42:53;;;;;;;5.22;1.20;;;;;;;12.85;48.31;97288.63;10489423;28;20049;-76
2021/04/11 23:48:34;;;;;;;4.22;1.85;;;;;;;12.87;47.81;97291.53;10486347;28;20470;-75
2021/04/11 23:54:09;;;;;;;3.38;1.20;;;;;;;12.95;47.77;97324.09;10487524;28;20053;-75
2021/04/11 23:59:36;;;;;;;2.65;1.05;;;;;;;13.02;47.73;97317.44;10473179;28;20048;-75
